메인 페이지
METAR-TAF:

METAR-TAF

공항 :

나소, 바하마

위도: 25-03N, 경도: 077-28W, 고도: 3m

현재 날씨관측

예보는 3 시간 57분 전, 14:00시(UTC)에 발표되었습니다.
남동9kt
온도 30°C
습도 70%
기압 1019 hPa
시정 10km 이상
고도 2000ft 상공 구름 보통

METAR: MYNN 251400Z 13009KT 9999 SCT020 30/24 A3010

시각: 13:57 (17:57 UTC)

예보

예보는 6 시간 57분 전, 11:00시(UTC)에 발표되었습니다.
예보 대상 시간: 25일 12시부터 26일 12시까지 (UTC)
6kt
시정: 9000m
고도 1800ft 상공 구름 조금, 적란운.
고도 4000ft 상공 구름 보통
시계 내 소나기
전환 중
25일 18시부터 25일 20시까지 (UTC)
시정 10km 이상
고도 2000ft 상공 구름 보통, 적란운.

TAF: MYNN 251100Z 2512/2612 09006KT 9000 VCSH FEW018CB SCT040 BECMG 2518/2520 9999 SCT020CB

4,000개 이상의 공항 관측 자료 및 예보 (METAR 및 TAF 보고).

지도상에서 검색 가능한 기상관측소가 노란 점과 빨간 점으로 표시되어 있습니다.

기상관측소 명을 보려면 표시 위로 마우스를 이동하세요.

날씨 관측과 예보를 보려면 클릭하세요.

지도 변경 : 확대하려면 엑스 표시가 있는 녹색 버튼, 축소하려면 빼기 표시가 있는 녹색 버튼, 다음 페이지의 지도를 보려면 녹색 화살표를 클릭하세요.


METAR-TAF: